Terminal Aerodrome Forecast
Issued by NWS Northern Indiana

Home | Current Version | Previous Version | Text Only | Print | Product List | Glossary On
Versions: 1 2 3 4 5 6 7 8 9 10 11 12 13 14
000
FTUS43 KIWX 282300 RRA
TAFFWA
TAF
KFWA 282339Z 2900/2924 17010KT P6SM SCT020 BKN100
     FM291600 20012KT P6SM OVC020
     FM291900 20014KT 6SM -DZ BR OVC015=

USA.gov is the U.S. government's official web portal to all federal, state and local government web resources and services.